createdAt,value
2023-06-17T00:00:10.788Z,5.22
2023-06-17T00:02:38.987Z,5.12
2023-06-17T00:05:07.981Z,4.35
2023-06-17T00:07:36.026Z,5.20
2023-06-17T00:10:04.199Z,4.57
2023-06-17T00:12:34.415Z,5.00
2023-06-17T00:15:05.409Z,4.87
2023-06-17T00:17:33.871Z,4.47
2023-06-17T00:20:15.297Z,4.20
2023-06-17T00:22:45.847Z,4.97
2023-06-17T00:25:14.791Z,4.45
2023-06-17T00:27:42.882Z,5.05
2023-06-17T00:30:11.241Z,5.18
2023-06-17T00:32:39.444Z,5.25
2023-06-17T00:35:08.162Z,5.03
2023-06-17T00:37:36.293Z,4.55
2023-06-17T00:40:10.229Z,5.03
2023-06-17T00:42:38.899Z,4.47
2023-06-17T00:45:07.667Z,4.28
2023-06-17T00:47:35.746Z,5.07
2023-06-17T00:50:04.039Z,4.60
2023-06-17T00:52:42.158Z,4.68
2023-06-17T00:55:11.893Z,4.97
2023-06-17T00:57:41.034Z,4.45
2023-06-17T01:00:12.980Z,5.22
2023-06-17T01:02:46.744Z,4.72
2023-06-17T01:05:17.313Z,5.12
2023-06-17T01:07:53.038Z,4.28
2023-06-17T01:10:42.731Z,5.07
2023-06-17T01:13:10.875Z,4.80
2023-06-17T01:15:38.923Z,5.35
2023-06-17T01:18:07.474Z,4.90
2023-06-17T01:20:35.653Z,4.53
2023-06-17T01:23:03.762Z,4.70
2023-06-17T01:25:32.710Z,4.90
2023-06-17T01:28:04.304Z,4.57
2023-06-17T01:30:32.442Z,4.85
2023-06-17T01:33:00.921Z,5.20
2023-06-17T01:35:35.395Z,5.43
2023-06-17T01:38:18.317Z,5.50
2023-06-17T01:40:46.418Z,5.00
2023-06-17T01:43:14.999Z,5.60
2023-06-17T01:45:43.134Z,5.20
2023-06-17T01:48:11.407Z,5.70
2023-06-17T01:50:39.596Z,5.12
2023-06-17T01:53:07.808Z,4.90
2023-06-17T01:55:35.816Z,5.30
2023-06-17T01:58:03.848Z,5.53
2023-06-17T02:00:32.035Z,5.40
2023-06-17T02:03:00.307Z,5.00
2023-06-17T02:05:28.463Z,5.28
2023-06-17T02:07:58.458Z,5.25
2023-06-17T02:10:26.657Z,5.35
2023-06-17T02:12:54.726Z,5.40
2023-06-17T02:15:22.795Z,4.93
2023-06-17T02:17:50.981Z,5.53
2023-06-17T02:20:19.231Z,5.55
2023-06-17T02:22:47.668Z,4.78
2023-06-17T02:25:15.782Z,5.12
2023-06-17T02:27:43.955Z,4.75
2023-06-17T02:30:12.646Z,4.80
2023-06-17T02:32:40.697Z,5.12
2023-06-17T02:35:09.669Z,5.43
2023-06-17T02:37:38.646Z,5.57
2023-06-17T02:40:10.651Z,5.93
2023-06-17T02:42:39.095Z,5.40
2023-06-17T02:45:08.434Z,5.32
2023-06-17T02:47:36.639Z,5.45
2023-06-17T02:50:04.936Z,5.47
2023-06-17T02:52:33.226Z,5.60
2023-06-17T02:55:01.292Z,5.28
2023-06-17T02:57:29.326Z,5.03
2023-06-17T02:59:57.342Z,4.47
2023-06-17T03:02:25.514Z,4.97
2023-06-17T03:04:56.367Z,4.82
2023-06-17T03:07:26.937Z,4.85
2023-06-17T03:09:55.001Z,4.97
2023-06-17T03:12:23.035Z,5.55
2023-06-17T03:14:51.056Z,5.70
2023-06-17T03:17:19.452Z,4.72
2023-06-17T03:19:48.662Z,4.60
2023-06-17T03:22:16.695Z,5.35
2023-06-17T03:24:44.722Z,5.97
2023-06-17T03:27:13.709Z,5.30
2023-06-17T03:29:42.485Z,5.22
2023-06-17T03:32:10.561Z,5.28
2023-06-17T03:34:38.657Z,5.40
2023-06-17T03:37:07.321Z,5.45
2023-06-17T03:39:35.456Z,5.37
2023-06-17T03:42:03.540Z,5.68
2023-06-17T03:44:31.571Z,4.68
2023-06-17T03:46:59.902Z,4.57
2023-06-17T03:49:28.060Z,4.72
2023-06-17T03:51:56.149Z,4.90
2023-06-17T03:54:24.232Z,5.60
2023-06-17T03:56:52.205Z,5.03
2023-06-17T03:59:20.282Z,5.25
2023-06-17T04:01:48.354Z,5.72
2023-06-17T04:04:16.578Z,5.25
2023-06-17T04:06:44.720Z,5.40
2023-06-17T04:09:12.698Z,5.28
2023-06-17T04:11:40.892Z,5.05
2023-06-17T04:14:09.242Z,4.95
2023-06-17T04:16:38.061Z,5.15
2023-06-17T04:19:06.275Z,5.30
2023-06-17T04:21:34.442Z,5.40
2023-06-17T04:24:02.778Z,5.22
2023-06-17T04:26:30.843Z,5.40
2023-06-17T04:28:58.843Z,5.78
2023-06-17T04:31:27.656Z,5.40
2023-06-17T04:33:58.860Z,5.05
2023-06-17T04:36:27.096Z,5.53
2023-06-17T04:38:56.410Z,5.55
2023-06-17T04:41:24.567Z,5.60
2023-06-17T04:43:53.844Z,5.97
2023-06-17T04:46:23.313Z,5.90
2023-06-17T04:48:53.086Z,5.45
2023-06-17T04:51:21.728Z,6.30
2023-06-17T04:53:49.931Z,5.85
2023-06-17T04:56:18.140Z,5.43
2023-06-17T04:58:46.202Z,5.53
2023-06-17T05:01:14.761Z,6.32
2023-06-17T05:03:42.929Z,5.87
2023-06-17T05:06:11.163Z,6.10
2023-06-17T05:08:39.257Z,5.90
2023-06-17T05:11:07.625Z,5.65
2023-06-17T05:13:35.642Z,6.05
2023-06-17T05:16:03.743Z,5.78
2023-06-17T05:18:31.841Z,6.45
2023-06-17T05:20:59.949Z,5.80
2023-06-17T05:23:28.019Z,5.78
2023-06-17T05:25:56.087Z,5.90
2023-06-17T05:28:24.255Z,5.43
2023-06-17T05:30:52.257Z,5.85
2023-06-17T05:33:20.380Z,5.93
2023-06-17T05:35:48.563Z,5.72
2023-06-17T05:38:16.603Z,5.75
2023-06-17T05:40:44.591Z,5.75
2023-06-17T05:43:12.649Z,5.72
2023-06-17T05:45:40.793Z,6.05
2023-06-17T05:48:08.892Z,6.00
2023-06-17T05:50:36.967Z,5.50
2023-06-17T05:53:05.185Z,6.00
2023-06-17T05:55:33.220Z,5.65
2023-06-17T05:58:01.342Z,5.43
2023-06-17T06:00:29.615Z,5.80
2023-06-17T06:02:57.804Z,5.87
2023-06-17T06:05:25.949Z,6.12
2023-06-17T06:07:53.981Z,6.25
2023-06-17T06:10:23.743Z,5.47
2023-06-17T06:12:53.004Z,5.68
2023-06-17T06:15:21.058Z,5.78
2023-06-17T06:17:49.220Z,5.75
2023-06-17T06:20:17.536Z,5.75
2023-06-17T06:22:45.709Z,5.53
2023-06-17T06:25:14.509Z,5.95
2023-06-17T06:27:42.689Z,5.87
2023-06-17T06:30:11.142Z,5.93
2023-06-17T06:32:39.460Z,5.90
2023-06-17T06:35:07.924Z,6.05
2023-06-17T06:37:36.254Z,5.45
2023-06-17T06:40:07.849Z,5.30
2023-06-17T06:42:36.028Z,5.93
2023-06-17T06:45:04.212Z,5.45
2023-06-17T06:47:32.488Z,5.57
2023-06-17T06:50:00.732Z,5.72
2023-06-17T06:52:29.005Z,5.50
2023-06-17T06:54:57.129Z,5.95
2023-06-17T06:57:25.256Z,5.70
2023-06-17T06:59:53.336Z,6.40
2023-06-17T07:02:21.500Z,5.35
2023-06-17T07:04:50.515Z,5.28
2023-06-17T07:07:18.556Z,6.07
2023-06-17T07:09:46.703Z,6.03
2023-06-17T07:12:14.880Z,5.78
2023-06-17T07:14:42.986Z,5.30
2023-06-17T07:17:11.168Z,5.22
2023-06-17T07:19:39.304Z,5.50
2023-06-17T07:22:07.621Z,5.50
2023-06-17T07:24:35.834Z,5.43
2023-06-17T07:27:04.169Z,6.82
2023-06-17T07:29:32.750Z,5.53
2023-06-17T07:32:00.949Z,6.07
2023-06-17T07:34:29.175Z,5.75
2023-06-17T07:36:57.327Z,5.70
2023-06-17T07:39:25.457Z,5.50
2023-06-17T07:41:53.426Z,5.95
2023-06-17T07:44:21.676Z,5.03
2023-06-17T07:46:49.811Z,5.80
2023-06-17T07:49:18.087Z,6.07
2023-06-17T07:51:46.148Z,5.72
2023-06-17T07:54:14.148Z,5.37
2023-06-17T07:56:42.326Z,6.05
2023-06-17T07:59:10.509Z,5.60
2023-06-17T08:01:39.719Z,5.72
2023-06-17T08:04:07.948Z,5.93
2023-06-17T08:06:36.427Z,5.47
2023-06-17T08:09:05.524Z,5.32
2023-06-17T08:11:33.538Z,5.20
2023-06-17T08:14:01.580Z,5.62
2023-06-17T08:16:29.697Z,6.15
2023-06-17T08:18:57.815Z,5.37
2023-06-17T08:21:25.879Z,5.97
2023-06-17T08:23:54.010Z,5.22
2023-06-17T08:26:22.036Z,5.62
2023-06-17T08:28:50.348Z,5.22
2023-06-17T08:31:19.249Z,5.80
2023-06-17T08:33:47.271Z,5.40
2023-06-17T08:36:15.326Z,5.82
2023-06-17T08:38:43.315Z,5.20
2023-06-17T08:41:11.335Z,5.72
2023-06-17T08:43:39.543Z,5.78
2023-06-17T08:46:07.567Z,5.90
2023-06-17T08:48:35.707Z,6.10
2023-06-17T08:51:03.864Z,6.20
2023-06-17T08:53:32.525Z,6.05
2023-06-17T08:56:00.629Z,5.25
2023-06-17T08:58:29.298Z,5.93
2023-06-17T09:01:00.141Z,5.85
2023-06-17T09:03:28.390Z,5.30
2023-06-17T09:05:56.766Z,5.93
2023-06-17T09:08:25.209Z,6.35
2023-06-17T09:10:53.423Z,5.93
2023-06-17T09:13:21.725Z,5.75
2023-06-17T09:15:50.078Z,5.85
2023-06-17T09:18:19.219Z,6.05
2023-06-17T10:55:08.539Z,5.10
2023-06-17T10:57:39.726Z,5.47
2023-06-17T11:00:10.863Z,4.62
2023-06-17T11:02:40.026Z,5.12
2023-06-17T11:05:09.620Z,4.55
2023-06-17T11:07:38.199Z,4.93
2023-06-17T11:10:07.512Z,4.72
2023-06-17T11:12:39.633Z,4.28
2023-06-17T11:15:11.369Z,4.65
2023-06-17T11:17:39.805Z,4.20
2023-06-17T11:20:09.386Z,4.40
2023-06-17T11:22:41.484Z,4.10
2023-06-17T11:25:11.281Z,4.30
2023-06-17T11:27:41.156Z,4.47
2023-06-17T11:30:10.226Z,3.75
2023-06-17T11:32:38.759Z,3.90
2023-06-17T11:35:07.216Z,4.22
2023-06-17T11:37:35.232Z,3.60
2023-06-17T11:40:03.455Z,3.55
2023-06-17T11:42:31.541Z,4.03
2023-06-17T11:44:59.752Z,3.65
2023-06-17T11:47:35.160Z,4.07
2023-06-17T11:50:03.891Z,3.53
2023-06-17T11:52:32.023Z,3.95
2023-06-17T11:57:28.822Z,4.00
2023-06-17T12:00:07.691Z,3.95
2023-06-17T12:02:37.335Z,3.60
2023-06-17T12:05:05.697Z,3.78
2023-06-17T12:07:43.256Z,3.72
2023-06-17T12:10:13.745Z,3.70
2023-06-17T12:12:42.700Z,3.90
2023-06-17T12:17:43.436Z,4.20
2023-06-17T12:20:16.122Z,3.75
2023-06-17T12:22:45.350Z,3.80
2023-06-17T12:25:16.582Z,4.00
2023-06-17T12:27:47.497Z,3.70
2023-06-17T12:30:16.219Z,3.90
2023-06-17T12:32:45.340Z,3.25
2023-06-17T12:35:14.229Z,3.47
2023-06-17T12:37:43.294Z,3.72
2023-06-17T12:40:11.736Z,3.40
2023-06-17T12:42:39.895Z,3.45
2023-06-17T12:45:08.680Z,3.50
2023-06-17T12:47:36.927Z,3.80
2023-06-17T12:50:06.484Z,3.47
2023-06-17T12:52:34.926Z,3.53
2023-06-17T12:57:28.961Z,3.70
2023-06-17T12:59:57.321Z,3.72
2023-06-17T13:02:25.324Z,3.55
2023-06-17T13:04:53.555Z,3.53
2023-06-17T13:07:22.477Z,3.28
2023-06-17T13:09:50.657Z,3.47
2023-06-17T13:12:19.242Z,3.42
2023-06-17T13:14:49.567Z,3.55
2023-06-17T13:17:18.541Z,3.25
2023-06-17T13:19:47.016Z,3.28
2023-06-17T13:22:15.197Z,3.90
2023-06-17T13:24:43.494Z,3.53
2023-06-17T13:27:11.832Z,3.55
2023-06-17T13:29:39.840Z,3.70
2023-06-17T13:32:08.547Z,3.35
2023-06-17T13:34:36.702Z,3.55
2023-06-17T13:37:05.149Z,3.83
2023-06-17T13:39:36.116Z,3.30
2023-06-17T13:42:07.466Z,4.12
2023-06-17T13:44:36.103Z,3.67
2023-06-17T13:47:04.207Z,3.80
2023-06-17T13:49:34.042Z,3.75
2023-06-17T13:52:03.776Z,3.80
2023-06-17T13:54:32.074Z,3.75
2023-06-17T13:57:00.361Z,4.12
2023-06-17T13:59:28.641Z,4.00
2023-06-17T14:01:56.835Z,3.42
2023-06-17T14:04:25.233Z,3.83
2023-06-17T14:06:54.234Z,3.53
2023-06-17T14:09:23.429Z,3.58
2023-06-17T14:11:52.887Z,3.60
2023-06-17T14:14:20.931Z,3.65
2023-06-17T14:19:20.318Z,3.22
2023-06-17T14:22:07.431Z,3.50
2023-06-17T14:24:38.986Z,3.60
2023-06-17T14:27:34.364Z,3.70
2023-06-17T14:30:02.398Z,3.80
2023-06-17T14:32:30.700Z,3.97
2023-06-17T14:34:59.278Z,4.07
2023-06-17T14:37:28.588Z,3.62
2023-06-17T14:39:56.718Z,3.80
2023-06-17T14:42:24.855Z,3.53
2023-06-17T14:44:52.869Z,3.92
2023-06-17T14:47:22.073Z,3.80
2023-06-17T14:49:50.490Z,3.85
2023-06-17T14:52:18.635Z,4.07
2023-06-17T14:54:46.686Z,3.90
2023-06-17T14:57:15.011Z,3.28
2023-06-17T14:59:43.547Z,3.87
2023-06-17T15:02:14.595Z,3.90
2023-06-17T15:04:42.697Z,3.70
2023-06-17T15:07:10.852Z,3.72
2023-06-17T15:09:42.013Z,3.50
2023-06-17T15:12:14.119Z,3.90
2023-06-17T15:14:43.123Z,3.80
2023-06-17T15:17:11.197Z,3.72
2023-06-17T15:19:39.513Z,4.00
2023-06-17T15:22:08.034Z,4.43
2023-06-17T15:24:37.007Z,3.53
2023-06-17T15:27:05.435Z,3.75
2023-06-17T15:29:33.529Z,4.07
2023-06-17T15:32:02.213Z,4.05
2023-06-17T15:34:30.256Z,3.58
2023-06-17T15:36:58.280Z,3.60
2023-06-17T15:39:27.962Z,3.70
2023-06-17T15:41:56.200Z,3.53
2023-06-17T15:44:24.473Z,3.65
2023-06-17T15:46:52.928Z,3.70
2023-06-17T15:49:20.988Z,3.50
2023-06-17T15:51:49.244Z,3.87
2023-06-17T15:54:17.377Z,3.58
2023-06-17T15:56:48.458Z,3.55
2023-06-17T15:59:17.166Z,3.85
2023-06-17T16:01:45.414Z,3.90
2023-06-17T16:04:42.961Z,3.92
2023-06-17T16:07:12.250Z,3.90
2023-06-17T16:09:52.293Z,3.75
2023-06-17T16:12:20.567Z,3.78
2023-06-17T16:14:49.019Z,3.85
2023-06-17T16:17:17.261Z,3.58
2023-06-17T16:19:45.433Z,4.05
2023-06-17T16:22:14.469Z,3.55
2023-06-17T16:24:43.099Z,3.80
2023-06-17T16:27:13.058Z,4.10
2023-06-17T16:29:41.256Z,3.60
2023-06-17T16:32:09.632Z,3.80
2023-06-17T16:34:37.712Z,3.50
2023-06-17T16:37:06.012Z,3.92
2023-06-17T16:39:34.586Z,3.67
2023-06-17T16:42:06.626Z,3.95
2023-06-17T16:44:35.532Z,3.87
2023-06-17T16:47:03.679Z,3.80
2023-06-17T16:49:31.975Z,3.85
2023-06-17T16:52:00.304Z,4.75
2023-06-17T16:54:28.380Z,4.50
2023-06-17T16:56:56.396Z,4.90
2023-06-17T16:59:25.057Z,4.40
2023-06-17T17:01:53.949Z,4.05
2023-06-17T17:04:22.285Z,4.28
2023-06-17T17:06:50.525Z,4.45
2023-06-17T17:09:25.215Z,4.15
2023-06-17T17:11:53.400Z,4.50
2023-06-17T17:14:21.472Z,4.10
2023-06-17T17:16:49.821Z,4.20
2023-06-17T17:19:18.657Z,4.18
2023-06-17T17:21:47.877Z,3.80
2023-06-17T17:24:15.998Z,4.30
2023-06-17T17:26:44.359Z,4.10
2023-06-17T17:29:12.864Z,4.75
2023-06-17T17:31:41.358Z,4.75
2023-06-17T17:34:09.436Z,4.28
2023-06-17T17:36:38.636Z,5.35
2023-06-17T17:39:18.395Z,4.70
2023-06-17T17:41:46.533Z,4.18
2023-06-17T17:44:14.703Z,4.40
2023-06-17T17:46:42.928Z,4.30
2023-06-17T17:49:11.112Z,4.85
2023-06-17T17:51:39.188Z,4.80
2023-06-17T17:54:07.533Z,4.18
2023-06-17T17:56:35.943Z,4.40
2023-06-17T17:59:04.158Z,4.35
2023-06-17T18:01:32.200Z,4.78
2023-06-17T18:04:01.049Z,4.70
2023-06-17T18:06:31.755Z,4.20
2023-06-17T18:09:00.131Z,4.53
2023-06-17T18:11:28.784Z,4.28
2023-06-17T18:13:57.185Z,4.50
2023-06-17T18:16:25.584Z,4.57
2023-06-17T18:18:53.856Z,6.00
2023-06-17T18:21:21.942Z,5.35
2023-06-17T18:23:50.170Z,5.07
2023-06-17T18:26:18.300Z,5.37
2023-06-17T18:28:46.387Z,4.60
2023-06-17T18:31:14.892Z,6.20
2023-06-17T18:33:43.420Z,6.95
2023-06-17T18:36:11.647Z,7.57
2023-06-17T18:38:39.882Z,5.87
2023-06-17T18:41:08.164Z,6.12
2023-06-17T18:43:36.309Z,6.15
2023-06-17T18:48:54.924Z,4.93
2023-06-17T18:51:22.957Z,4.65
2023-06-17T18:53:51.013Z,4.90
2023-06-17T18:56:19.095Z,4.68
2023-06-17T18:58:47.096Z,5.10
2023-06-17T19:01:15.560Z,4.43
2023-06-17T19:03:43.819Z,4.75
2023-06-17T19:06:11.895Z,4.47
2023-06-17T19:08:39.999Z,4.53
2023-06-17T19:11:08.620Z,5.25
2023-06-17T19:13:36.650Z,5.03
2023-06-17T19:16:05.710Z,4.87
2023-06-17T19:18:33.898Z,5.37
2023-06-17T19:21:01.956Z,4.78
2023-06-17T19:23:30.135Z,4.78
2023-06-17T19:25:58.252Z,5.03
2023-06-17T19:28:26.512Z,5.05
2023-06-17T19:30:54.610Z,5.15
2023-06-17T19:33:23.698Z,5.60
2023-06-17T19:35:52.461Z,6.00
2023-06-17T19:38:21.019Z,5.32
2023-06-17T19:40:49.293Z,5.07
2023-06-17T19:44:07.282Z,5.50
2023-06-17T19:46:35.617Z,5.15
2023-06-17T19:49:03.930Z,5.35
2023-06-17T19:51:32.325Z,5.00
2023-06-17T19:54:00.605Z,5.25
2023-06-17T19:56:29.284Z,5.22
2023-06-17T19:58:58.070Z,5.82
2023-06-17T20:04:52.476Z,5.72
2023-06-17T20:07:35.366Z,5.55
2023-06-17T20:10:03.656Z,6.18
2023-06-17T20:12:31.773Z,5.75
2023-06-17T20:14:59.989Z,5.95
2023-06-17T20:17:45.203Z,6.22
2023-06-17T20:20:15.205Z,5.87
2023-06-17T20:23:26.509Z,6.03
2023-06-17T20:29:20.793Z,7.18
2023-06-17T20:31:48.925Z,6.45
2023-06-17T20:34:44.705Z,6.15
2023-06-17T20:37:12.842Z,6.32
2023-06-17T20:39:40.945Z,6.30
2023-06-17T20:42:09.472Z,6.80
2023-06-17T20:44:37.605Z,8.13
2023-06-17T20:47:06.380Z,7.20
2023-06-17T20:49:34.487Z,6.62
2023-06-17T20:52:02.845Z,5.72
2023-06-17T20:54:30.796Z,5.93
2023-06-17T20:56:58.981Z,6.18
2023-06-17T20:59:27.171Z,5.28
2023-06-17T21:01:55.302Z,5.47
2023-06-17T21:04:23.397Z,5.35
2023-06-17T21:06:51.501Z,5.40
2023-06-17T21:09:19.529Z,5.78
2023-06-17T21:11:47.742Z,6.30
2023-06-17T21:14:16.175Z,6.07
2023-06-17T21:16:44.327Z,5.68
2023-06-17T21:19:12.428Z,6.25
2023-06-17T21:21:40.535Z,6.85
2023-06-17T21:24:08.631Z,6.45
2023-06-17T21:26:36.776Z,6.10
2023-06-17T21:29:04.882Z,6.18
2023-06-17T21:31:32.984Z,5.97
2023-06-17T21:34:00.980Z,6.05
2023-06-17T21:36:29.046Z,6.50
2023-06-17T21:38:57.052Z,6.00
2023-06-17T21:41:25.139Z,6.30
2023-06-17T21:43:53.684Z,5.93
2023-06-17T21:46:24.968Z,5.60
2023-06-17T21:48:53.413Z,5.53
2023-06-17T21:51:21.620Z,5.65
2023-06-17T21:53:49.598Z,6.35
2023-06-17T21:56:17.751Z,5.62
2023-06-17T21:58:45.821Z,5.75
2023-06-17T22:01:13.906Z,5.95
2023-06-17T22:03:45.274Z,5.03
2023-06-17T22:06:13.641Z,5.60
2023-06-17T22:08:43.934Z,5.80
2023-06-17T22:11:15.576Z,5.35
2023-06-17T22:13:43.808Z,6.00
2023-06-17T22:16:14.084Z,6.05
2023-06-17T22:18:42.228Z,6.35
2023-06-17T22:21:10.563Z,5.95
2023-06-17T22:23:38.650Z,5.75
2023-06-17T22:26:06.792Z,5.60
2023-06-17T22:28:34.846Z,5.50
2023-06-17T22:31:03.064Z,5.95
2023-06-17T22:33:31.170Z,5.60
2023-06-17T22:35:59.276Z,5.32
2023-06-17T22:38:27.275Z,5.82
2023-06-17T22:40:55.369Z,6.30
2023-06-17T22:43:23.549Z,5.90
2023-06-17T22:45:51.721Z,5.97
2023-06-17T22:48:19.810Z,5.47
2023-06-17T22:50:48.441Z,6.15
2023-06-17T22:53:16.539Z,5.32
2023-06-17T22:55:44.699Z,5.87
2023-06-17T22:58:12.815Z,5.62
2023-06-17T23:00:41.246Z,5.97
2023-06-17T23:03:09.692Z,5.25
2023-06-17T23:05:37.843Z,5.78
2023-06-17T23:08:06.096Z,5.57
2023-06-17T23:10:34.254Z,5.87
2023-06-17T23:13:02.534Z,5.70
2023-06-17T23:15:30.665Z,5.85
2023-06-17T23:17:58.943Z,5.47
2023-06-17T23:20:27.080Z,5.53
2023-06-17T23:22:55.337Z,5.70
2023-06-17T23:25:23.530Z,5.07
2023-06-17T23:27:51.654Z,5.72
2023-06-17T23:30:20.198Z,4.82
2023-06-17T23:32:49.250Z,5.43
2023-06-17T23:35:17.413Z,5.87
2023-06-17T23:37:45.475Z,5.90
2023-06-17T23:40:13.787Z,5.72
2023-06-17T23:42:42.068Z,5.50
2023-06-17T23:45:10.760Z,5.70
2023-06-17T23:47:38.827Z,5.00
2023-06-17T23:50:07.281Z,5.50
2023-06-17T23:52:35.392Z,6.03
2023-06-17T23:55:03.495Z,5.62
2023-06-17T23:57:31.650Z,6.07
2023-06-17T23:59:59.709Z,5.53
